createdAt,value
2022-08-07T00:01:43.322Z,15.42303
2022-08-07T00:03:36.880Z,15.40273
2022-08-07T00:04:37.727Z,15.3764
2022-08-07T00:05:39.407Z,15.37006
2022-08-07T00:06:51.276Z,15.38497
2022-08-07T00:07:59.838Z,15.37355
2022-08-07T00:09:16.417Z,15.35262
2022-08-07T00:10:26.171Z,15.39385
2022-08-07T00:11:29.971Z,15.37292
2022-08-07T00:12:33.867Z,15.40178
2022-08-07T00:13:34.500Z,15.33137
2022-08-07T00:14:41.206Z,15.29965
2022-08-07T00:15:46.634Z,15.23876
2022-08-07T00:16:51.996Z,15.22354
2022-08-07T00:17:52.688Z,15.22861
2022-08-07T00:18:53.309Z,15.1693
2022-08-07T00:20:01.546Z,15.10651
2022-08-07T00:21:08.135Z,15.04086
2022-08-07T00:22:58.180Z,15.0472
2022-08-07T00:23:59.687Z,14.98631
2022-08-07T00:25:00.303Z,14.98726
2022-08-07T00:26:13.130Z,14.93588
2022-08-07T00:27:19.428Z,14.92224
2022-08-07T00:28:23.280Z,14.88641
2022-08-07T00:29:32.466Z,14.88894
2022-08-07T00:30:33.079Z,14.88419
2022-08-07T00:31:37.492Z,14.81632
2022-08-07T00:32:40.140Z,14.75352
2022-08-07T00:33:41.632Z,14.68216
2022-08-07T00:34:42.589Z,14.66408
2022-08-07T00:35:49.078Z,14.70246
2022-08-07T00:36:50.411Z,14.68787
2022-08-07T00:37:51.294Z,14.67899
2022-08-07T00:38:51.919Z,14.63174
2022-08-07T00:39:54.320Z,14.70024
2022-08-07T00:40:55.375Z,14.70468
2022-08-07T00:42:01.685Z,14.69897
2022-08-07T00:43:09.875Z,14.79824
2022-08-07T00:44:11.106Z,14.91685
2022-08-07T00:45:16.241Z,14.98028
2022-08-07T00:46:17.377Z,15.06179
2022-08-07T00:48:09.050Z,15.19404
2022-08-07T00:49:11.231Z,15.42842
2022-08-07T00:50:50.367Z,15.52103
2022-08-07T00:51:58.267Z,15.57431
2022-08-07T00:52:59.230Z,15.57716
2022-08-07T00:53:59.852Z,15.47853
2022-08-07T00:55:04.992Z,15.46299
2022-08-07T00:56:13.786Z,15.404
2022-08-07T00:57:14.925Z,15.31963
2022-08-07T00:58:15.543Z,15.29648
2022-08-07T00:59:16.219Z,15.25906
2022-08-07T01:00:16.937Z,15.2321
2022-08-07T01:01:20.825Z,15.25272
2022-08-07T01:02:28.341Z,15.23718
2022-08-07T01:03:56.509Z,15.16645
2022-08-07T01:05:00.792Z,15.08748
2022-08-07T01:06:02.952Z,15.03896
2022-08-07T01:07:03.592Z,14.94952
2022-08-07T01:08:04.301Z,14.9473
2022-08-07T01:09:05.020Z,14.85089
2022-08-07T01:10:11.229Z,14.76335
2022-08-07T01:12:10.298Z,14.66504
2022-08-07T01:13:35.283Z,14.45255
2022-08-07T01:14:37.058Z,14.33806
2022-08-07T01:16:05.174Z,14.27145
2022-08-07T01:17:07.191Z,14.22198
2022-08-07T01:18:07.942Z,14.17377
2022-08-07T01:19:18.155Z,14.11986
2022-08-07T01:20:20.007Z,14.08783
2022-08-07T01:21:31.359Z,14.13667
2022-08-07T01:22:31.978Z,14.14682
2022-08-07T01:23:37.908Z,14.1335
2022-08-07T01:24:39.468Z,14.15601
2022-08-07T01:25:55.451Z,14.1836
2022-08-07T01:26:57.028Z,14.19122
2022-08-07T01:27:58.907Z,14.17092
2022-08-07T01:29:00.265Z,14.2242
2022-08-07T01:30:00.933Z,14.26701
2022-08-07T01:31:01.595Z,14.30571
2022-08-07T01:32:05.220Z,14.34947
2022-08-07T01:33:06.469Z,14.34757
2022-08-07T01:34:07.093Z,14.39483
2022-08-07T01:35:09.972Z,14.41734
2022-08-07T01:36:16.816Z,14.45223
2022-08-07T01:37:18.998Z,14.48521
2022-08-07T01:38:25.374Z,14.45889
2022-08-07T01:39:39.453Z,14.47094
2022-08-07T01:40:42.198Z,14.52073
2022-08-07T01:42:07.095Z,14.57116
2022-08-07T01:43:38.524Z,14.50868
2022-08-07T01:44:39.326Z,14.49187
2022-08-07T01:45:40.318Z,14.51027
2022-08-07T01:46:40.960Z,14.51217
2022-08-07T01:48:19.666Z,14.4684
2022-08-07T01:49:31.974Z,14.33901
2022-08-07T01:50:32.709Z,14.23118
2022-08-07T01:52:01.647Z,14.1706
2022-08-07T01:53:08.639Z,14.20358
2022-08-07T01:54:12.965Z,14.20929
2022-08-07T01:55:34.117Z,14.22293
2022-08-07T01:56:34.741Z,14.16648
2022-08-07T01:58:01.660Z,14.09575
2022-08-07T01:59:07.828Z,14.03074
2022-08-07T02:00:16.416Z,13.95748
2022-08-07T02:01:44.797Z,13.96097
2022-08-07T02:03:18.042Z,13.93084
2022-08-07T02:04:22.283Z,13.90008
2022-08-07T02:05:48.394Z,13.87756
2022-08-07T02:07:00.757Z,13.82999
2022-08-07T02:08:01.422Z,13.82713
2022-08-07T02:09:04.402Z,13.84901
2022-08-07T02:10:05.377Z,13.81191
2022-08-07T02:11:06.968Z,13.81952
2022-08-07T02:12:11.051Z,13.79573
2022-08-07T02:13:18.283Z,13.8506
2022-08-07T02:14:35.711Z,13.87692
2022-08-07T02:15:40.996Z,13.89786
2022-08-07T02:16:41.934Z,13.91308
2022-08-07T02:17:49.750Z,13.8747
2022-08-07T02:18:51.225Z,13.87217
2022-08-07T02:20:04.109Z,13.88073
2022-08-07T02:21:08.684Z,13.87851
2022-08-07T02:22:18.548Z,13.8858
2022-08-07T02:23:23.999Z,13.89119
2022-08-07T02:24:24.795Z,13.94004
2022-08-07T02:26:10.505Z,13.93116
2022-08-07T02:27:34.432Z,13.94257
2022-08-07T02:28:35.589Z,13.97207
2022-08-07T02:29:36.787Z,13.92259
2022-08-07T02:30:49.648Z,13.8931
2022-08-07T02:31:50.761Z,13.8709
2022-08-07T02:33:08.855Z,13.77671
2022-08-07T02:34:17.955Z,13.77005
2022-08-07T02:35:20.216Z,13.77575
2022-08-07T02:36:28.645Z,13.75736
2022-08-07T02:37:34.217Z,13.80049
2022-08-07T02:38:36.797Z,13.79003
2022-08-07T02:39:42.459Z,13.79098
2022-08-07T02:40:46.646Z,13.79732
2022-08-07T02:41:54.471Z,13.76529
2022-08-07T02:42:55.804Z,13.77702
2022-08-07T02:43:56.794Z,13.80874
2022-08-07T02:44:58.315Z,13.79669
2022-08-07T02:46:01.873Z,13.87534
2022-08-07T02:47:03.366Z,13.90261
2022-08-07T02:48:04.006Z,13.86424
2022-08-07T02:49:10.762Z,13.89405
2022-08-07T02:50:30.887Z,13.92323
2022-08-07T02:51:42.569Z,13.94162
2022-08-07T02:52:52.852Z,13.94828
2022-08-07T02:53:53.583Z,13.95399
2022-08-07T02:54:54.209Z,13.90261
2022-08-07T02:56:04.447Z,13.91149
2022-08-07T02:57:06.772Z,13.98729
2022-08-07T02:58:07.401Z,14.09068
2022-08-07T02:59:10.403Z,14.17916
2022-08-07T03:00:12.408Z,14.27843
2022-08-07T03:01:18.558Z,14.30602
2022-08-07T03:02:20.063Z,14.40117
2022-08-07T03:03:22.817Z,14.46143
2022-08-07T03:04:24.085Z,14.49504
2022-08-07T03:05:25.053Z,14.52644
2022-08-07T03:06:33.213Z,14.57909
2022-08-07T03:07:43.121Z,14.61905
2022-08-07T03:09:06.230Z,14.61588
2022-08-07T03:10:06.863Z,14.55435
2022-08-07T03:11:09.167Z,14.4018
2022-08-07T03:12:16.186Z,14.35708
2022-08-07T03:13:23.418Z,14.24577
2022-08-07T03:14:24.180Z,14.14174
2022-08-07T03:15:30.170Z,14.11859
2022-08-07T03:16:56.187Z,14.07482
2022-08-07T03:17:56.805Z,14.09639
2022-08-07T03:18:58.265Z,14.15126
2022-08-07T03:19:58.870Z,14.2058
2022-08-07T03:20:59.477Z,14.24355
2022-08-07T03:22:00.579Z,14.27367
2022-08-07T03:23:01.198Z,14.30317
2022-08-07T03:24:18.301Z,14.3463
2022-08-07T03:25:22.025Z,14.43098
2022-08-07T03:26:23.742Z,14.47538
2022-08-07T03:27:30.712Z,14.50678
2022-08-07T03:28:37.675Z,14.46143
2022-08-07T03:29:39.224Z,14.46935
2022-08-07T03:30:46.875Z,14.42464
2022-08-07T03:31:49.977Z,14.3815
2022-08-07T03:32:58.327Z,14.38785
2022-08-07T03:33:59.709Z,14.35518
2022-08-07T03:35:16.767Z,14.31395
2022-08-07T03:36:18.902Z,14.33425
2022-08-07T03:37:19.533Z,14.34345
2022-08-07T03:38:29.844Z,14.33552
2022-08-07T03:39:45.973Z,14.36882
2022-08-07T03:41:00.931Z,14.37199
2022-08-07T03:42:01.666Z,14.31712
2022-08-07T03:43:02.806Z,14.34503
2022-08-07T03:44:03.613Z,14.34376
2022-08-07T03:45:05.689Z,14.30666
2022-08-07T03:46:10.618Z,14.29302
2022-08-07T03:47:19.338Z,14.23054
2022-08-07T03:48:20.621Z,14.24037
2022-08-07T03:49:21.255Z,14.21754
2022-08-07T03:50:23.190Z,14.20834
2022-08-07T03:51:24.120Z,14.29302
2022-08-07T03:52:32.071Z,14.33837
2022-08-07T03:54:05.704Z,14.34059
2022-08-07T03:55:57.548Z,14.3371
2022-08-07T03:57:03.469Z,14.31681
2022-08-07T03:59:05.243Z,14.30412
2022-08-07T04:00:10.441Z,14.35233
2022-08-07T04:01:11.725Z,14.41861
2022-08-07T04:02:14.593Z,14.43923
2022-08-07T04:03:15.312Z,14.45381
2022-08-07T04:04:17.496Z,14.51439
2022-08-07T04:05:18.473Z,14.46935
2022-08-07T04:06:37.402Z,14.45508
2022-08-07T04:07:45.128Z,14.51883
2022-08-07T04:08:46.053Z,14.5553
2022-08-07T04:09:50.231Z,14.60287
2022-08-07T04:10:54.794Z,14.49631
2022-08-07T04:13:16.555Z,14.46269
2022-08-07T04:14:38.484Z,14.52644
2022-08-07T04:15:45.449Z,14.5182
2022-08-07T04:16:58.698Z,14.53437
2022-08-07T04:18:58.299Z,14.4979
2022-08-07T04:20:02.002Z,14.46999
2022-08-07T04:21:02.667Z,14.44335
2022-08-07T04:22:08.615Z,14.35106
2022-08-07T04:23:18.396Z,14.38721
2022-08-07T04:24:30.378Z,14.34186
2022-08-07T04:25:35.814Z,14.35486
2022-08-07T04:26:39.991Z,14.35835
2022-08-07T04:27:46.207Z,14.30444
2022-08-07T04:29:01.585Z,14.26923
2022-08-07T04:30:04.874Z,14.22483
2022-08-07T04:31:19.785Z,14.19185
2022-08-07T04:32:34.692Z,14.19978
2022-08-07T04:33:35.821Z,14.18773
2022-08-07T04:34:39.429Z,14.14618
2022-08-07T04:35:40.239Z,14.13064
2022-08-07T04:36:41.041Z,14.16806
2022-08-07T04:38:03.066Z,14.15379
2022-08-07T04:39:07.787Z,14.21246
2022-08-07T04:40:11.292Z,14.23625
2022-08-07T04:41:18.119Z,14.25369
2022-08-07T04:42:19.909Z,14.31681
2022-08-07T04:43:20.551Z,14.3371
2022-08-07T04:44:21.260Z,14.37167
2022-08-07T04:45:57.316Z,14.2927
2022-08-07T04:47:07.720Z,14.35391
2022-08-07T04:48:10.833Z,14.34186
2022-08-07T04:49:18.344Z,14.35233
2022-08-07T04:50:25.498Z,14.37643
2022-08-07T04:51:28.267Z,14.37738
2022-08-07T04:52:32.721Z,14.42369
2022-08-07T04:54:01.661Z,14.43479
2022-08-07T04:55:15.675Z,14.41449
2022-08-07T05:00:14.482Z,14.52359
2022-08-07T05:01:21.081Z,14.51407
2022-08-07T05:02:30.666Z,14.52042
2022-08-07T05:03:31.292Z,14.47126
2022-08-07T05:04:44.086Z,14.45318
2022-08-07T05:05:52.042Z,14.48236
2022-08-07T05:06:54.388Z,14.41893
2022-08-07T05:07:55.498Z,14.35328
2022-08-07T05:09:01.494Z,14.41544
2022-08-07T05:10:02.791Z,14.48616
2022-08-07T05:11:05.362Z,14.54071
2022-08-07T05:12:09.924Z,14.55023
2022-08-07T05:14:56.532Z,14.59019
2022-08-07T05:16:00.228Z,14.6533
2022-08-07T05:17:05.980Z,14.61841
2022-08-07T05:18:12.783Z,14.53881
2022-08-07T05:19:15.103Z,14.51883
2022-08-07T05:20:17.722Z,14.56672
2022-08-07T05:21:18.711Z,14.63205
2022-08-07T05:23:01.932Z,14.6292
2022-08-07T05:24:02.854Z,14.64188
2022-08-07T05:25:03.473Z,14.70151
2022-08-07T05:26:15.587Z,14.75384
2022-08-07T05:28:16.099Z,14.78682
2022-08-07T05:29:21.120Z,14.8198
2022-08-07T05:30:32.638Z,14.84867
2022-08-07T05:31:35.038Z,14.8696
2022-08-07T05:32:38.583Z,14.79634
2022-08-07T05:33:40.333Z,14.79887
2022-08-07T05:35:02.199Z,14.73925
2022-08-07T05:36:03.036Z,14.67962
2022-08-07T05:37:05.734Z,14.73798
2022-08-07T05:38:08.572Z,14.73576
2022-08-07T05:40:07.075Z,14.72149
2022-08-07T05:41:21.888Z,14.82869
2022-08-07T05:42:33.238Z,14.80712
2022-08-07T05:44:01.284Z,14.76621
2022-08-07T05:45:26.024Z,14.79126
2022-08-07T05:46:47.852Z,14.83947
2022-08-07T05:48:02.727Z,14.89053
2022-08-07T05:49:12.171Z,14.92668
2022-08-07T05:50:13.366Z,14.92764
2022-08-07T05:51:14.030Z,14.92922
2022-08-07T05:52:14.911Z,14.9159
2022-08-07T05:54:12.565Z,14.93683
2022-08-07T05:56:03.249Z,14.96474
2022-08-07T05:57:06.779Z,15.03959
2022-08-07T05:58:08.300Z,15.0564
2022-08-07T05:59:11.721Z,15.11444
2022-08-07T06:00:16.668Z,15.15059
2022-08-07T06:01:18.560Z,15.14615
2022-08-07T06:02:28.851Z,15.20102
2022-08-07T06:03:53.235Z,15.26255
2022-08-07T06:04:57.653Z,15.31107
2022-08-07T06:05:58.662Z,15.39543
2022-08-07T06:07:03.672Z,15.42398
2022-08-07T06:08:29.498Z,15.3875
2022-08-07T06:10:04.348Z,15.39131
2022-08-07T06:11:06.650Z,15.40939
2022-08-07T06:12:08.420Z,15.45728
2022-08-07T06:13:13.578Z,15.5667
2022-08-07T06:14:20.745Z,15.59651
2022-08-07T06:15:22.142Z,15.60253
2022-08-07T06:16:40.477Z,15.59334
2022-08-07T06:17:41.407Z,15.67072
2022-08-07T06:18:55.738Z,15.78585
2022-08-07T06:20:03.797Z,15.79473
2022-08-07T06:22:16.688Z,15.8331
2022-08-07T06:23:47.174Z,15.86514
2022-08-07T06:25:54.703Z,15.90859
2022-08-07T06:26:57.746Z,16.03481
2022-08-07T06:28:01.172Z,16.15914
2022-08-07T06:29:03.330Z,16.20449
2022-08-07T06:30:07.288Z,16.1639
2022-08-07T06:31:46.703Z,16.15026
2022-08-07T06:32:50.861Z,16.1252
2022-08-07T06:33:52.494Z,16.1474
2022-08-07T06:34:55.263Z,16.24921
2022-08-07T06:36:13.580Z,16.33135
2022-08-07T06:37:17.288Z,16.4154
2022-08-07T06:38:21.426Z,16.52133
2022-08-07T06:40:16.904Z,16.58698
2022-08-07T06:41:58.767Z,16.71828
2022-08-07T06:43:03.436Z,16.7389
2022-08-07T06:44:10.896Z,16.7852
2022-08-07T06:45:11.714Z,16.82517
2022-08-07T06:46:12.618Z,16.79313
2022-08-07T06:47:15.576Z,16.71797
2022-08-07T06:48:24.716Z,16.57778
2022-08-07T06:49:26.099Z,16.52387
2022-08-07T06:50:30.432Z,16.47788
2022-08-07T06:51:33.457Z,16.47249
2022-08-07T06:52:35.829Z,16.49596
2022-08-07T06:54:11.746Z,16.5873
2022-08-07T06:56:35.311Z,16.73034
2022-08-07T06:57:50.960Z,16.74937
2022-08-07T07:00:12.994Z,16.74556
2022-08-07T07:01:18.310Z,16.50896
2022-08-07T07:02:53.965Z,16.55844
2022-08-07T07:04:27.679Z,16.41667
2022-08-07T07:06:03.307Z,16.34309
2022-08-07T07:07:10.842Z,16.45917
2022-08-07T07:08:58.847Z,16.70401
2022-08-07T07:10:01.026Z,16.66215
2022-08-07T07:11:01.689Z,16.68308
2022-08-07T07:12:16.592Z,16.64153
2022-08-07T07:13:56.672Z,16.57176
2022-08-07T07:14:59.531Z,16.63995
2022-08-07T07:16:03.858Z,16.65549
2022-08-07T07:17:06.123Z,16.74905
2022-08-07T07:18:14.377Z,16.71226
2022-08-07T07:19:55.631Z,16.64629
2022-08-07T07:20:59.081Z,16.60665
2022-08-07T07:22:05.309Z,16.72209
2022-08-07T07:24:10.219Z,16.75761
2022-08-07T07:26:31.330Z,16.70877
2022-08-07T07:27:55.581Z,17.02656
2022-08-07T07:29:57.007Z,17.0402
2022-08-07T07:31:11.046Z,17.14105
2022-08-07T07:32:17.906Z,17.2749
2022-08-07T07:33:18.537Z,17.35133
2022-08-07T07:34:19.170Z,17.44902
2022-08-07T07:35:19.792Z,17.52006
2022-08-07T07:36:24.381Z,17.45377
2022-08-07T07:37:49.400Z,17.62028
2022-08-07T07:38:53.357Z,17.85244
2022-08-07T07:39:55.596Z,18.00754
2022-08-07T07:41:01.454Z,18.12996
2022-08-07T07:42:13.668Z,18.22416
2022-08-07T07:43:18.683Z,18.14328
2022-08-07T07:44:28.110Z,18.19466
2022-08-07T07:46:40.493Z,18.10681
2022-08-07T07:47:58.139Z,18.1585
2022-08-07T07:48:59.947Z,18.08302
2022-08-07T07:50:35.168Z,17.99295
2022-08-07T07:51:57.917Z,18.07319
2022-08-07T07:52:59.470Z,18.25778
2022-08-07T07:54:01.751Z,18.2933
2022-08-07T07:55:03.547Z,18.58255
2022-08-07T07:56:04.248Z,18.47154
2022-08-07T07:57:04.899Z,18.41255
2022-08-07T07:58:05.512Z,18.27839
2022-08-07T07:59:06.870Z,18.46837
2022-08-07T08:00:10.039Z,18.61141
2022-08-07T08:02:03.603Z,18.84072
2022-08-07T08:03:07.056Z,18.26031
2022-08-07T08:04:11.946Z,18.49565
2022-08-07T08:05:14.955Z,18.64059
2022-08-07T08:06:15.869Z,18.95871
2022-08-07T08:07:20.158Z,19.02404
2022-08-07T08:08:35.134Z,19.05735
2022-08-07T08:09:52.386Z,19.05068
2022-08-07T08:11:05.821Z,19.16677
2022-08-07T08:12:09.532Z,19.04942
2022-08-07T08:13:15.192Z,19.25843
2022-08-07T08:14:16.163Z,19.32091
2022-08-07T08:15:16.792Z,19.00406
2022-08-07T08:16:24.926Z,18.60539
2022-08-07T08:17:57.802Z,18.52927
2022-08-07T08:19:00.497Z,18.56067
2022-08-07T08:20:23.204Z,18.44554
2022-08-07T08:21:55.716Z,18.54259
2022-08-07T08:23:04.152Z,18.92382
2022-08-07T08:24:08.985Z,19.07955
2022-08-07T08:25:42.934Z,19.14869
2022-08-07T08:26:50.586Z,18.92445
2022-08-07T08:27:56.687Z,18.94253
2022-08-07T08:28:58.240Z,19.20324
2022-08-07T08:29:59.039Z,19.293
2022-08-07T08:31:03.751Z,19.36151
2022-08-07T08:32:18.863Z,19.44175
2022-08-07T08:33:28.746Z,19.34628
2022-08-07T08:34:33.676Z,19.13759
2022-08-07T08:35:42.842Z,19.03324
2022-08-07T08:36:57.805Z,19.13664
2022-08-07T08:38:00.507Z,18.95078
2022-08-07T08:39:02.893Z,18.85119
2022-08-07T08:40:03.797Z,19.01643
2022-08-07T08:41:04.480Z,19.30917
2022-08-07T08:42:06.076Z,19.391
2022-08-07T08:43:09.977Z,19.80332
2022-08-07T08:44:11.451Z,20.11637
2022-08-07T08:45:13.410Z,20.12334
2022-08-07T08:46:14.635Z,20.30445
2022-08-07T08:47:17.253Z,20.37391
2022-08-07T08:48:18.041Z,20.503
2022-08-07T08:49:32.938Z,20.43924
2022-08-07T08:50:38.896Z,19.99013
2022-08-07T08:52:13.139Z,20.06245
2022-08-07T08:53:15.202Z,20.17853
2022-08-07T08:54:17.335Z,19.92511
2022-08-07T08:55:21.284Z,19.58923
2022-08-07T08:56:56.310Z,19.45507
2022-08-07T08:57:57.060Z,19.53309
2022-08-07T08:58:58.017Z,19.55815
2022-08-07T08:59:58.720Z,19.27714
2022-08-07T09:01:01.110Z,19.34057
2022-08-07T09:02:16.191Z,19.70532
2022-08-07T09:03:47.647Z,19.85978
2022-08-07T09:04:50.656Z,19.54546
2022-08-07T09:05:51.281Z,19.4611
2022-08-07T09:06:53.607Z,19.69453
2022-08-07T09:07:57.553Z,20.05674
2022-08-07T09:08:59.136Z,20.27305
2022-08-07T09:09:59.883Z,20.22642
2022-08-07T09:11:04.036Z,20.35995
2022-08-07T09:12:30.390Z,20.22452
2022-08-07T09:13:36.991Z,20.00789
2022-08-07T09:14:38.858Z,20.24196
2022-08-07T09:16:24.819Z,20.27622
2022-08-07T09:17:58.566Z,20.52203
2022-08-07T09:19:03.474Z,20.69298
2022-08-07T09:20:34.602Z,20.66444
2022-08-07T09:22:09.761Z,20.35266
2022-08-07T09:24:55.487Z,20.04913
2022-08-07T09:26:00.252Z,19.9083
2022-08-07T09:27:04.641Z,20.17282
2022-08-07T09:29:24.336Z,20.36217
2022-08-07T09:31:07.486Z,20.33743
2022-08-07T09:32:18.614Z,20.19629
2022-08-07T09:33:40.851Z,19.99584
2022-08-07T09:34:54.257Z,19.71261
2022-08-07T09:36:05.062Z,19.94985
2022-08-07T09:37:06.749Z,20.03898
2022-08-07T09:38:10.386Z,20.31238
2022-08-07T09:39:52.504Z,20.64763
2022-08-07T09:40:56.395Z,20.36312
2022-08-07T09:42:03.130Z,20.16616
2022-08-07T09:43:08.463Z,20.17377
2022-08-07T09:44:19.157Z,20.26448
2022-08-07T09:47:50.135Z,20.16426
2022-08-07T09:50:01.713Z,19.98982
2022-08-07T09:52:16.435Z,20.37581
2022-08-07T09:53:40.596Z,20.04786
2022-08-07T09:54:44.455Z,20.4107
2022-08-07T09:56:03.379Z,20.43734
2022-08-07T09:57:05.749Z,20.2112
2022-08-07T09:58:06.659Z,19.99489
2022-08-07T09:59:07.797Z,19.88769
2022-08-07T10:00:15.374Z,19.84328
2022-08-07T10:01:50.530Z,19.7088
2022-08-07T10:02:55.753Z,19.60953
2022-08-07T10:04:05.253Z,19.50677
2022-08-07T10:05:12.431Z,19.48615
2022-08-07T10:06:17.262Z,19.58003
2022-08-07T10:07:39.739Z,19.69612
2022-08-07T10:08:40.872Z,19.74242
2022-08-07T10:09:59.230Z,19.69199
2022-08-07T10:11:58.963Z,19.88674
2022-08-07T10:13:01.510Z,20.04469
2022-08-07T10:14:04.403Z,20.24831
2022-08-07T10:15:06.596Z,20.29461
2022-08-07T10:16:07.334Z,20.02914
2022-08-07T10:17:14.339Z,20.24482
2022-08-07T10:18:17.669Z,20.5788
2022-08-07T10:19:21.317Z,20.51663
2022-08-07T10:20:30.612Z,20.80431
2022-08-07T10:22:13.991Z,20.85252
2022-08-07T10:23:17.097Z,20.9908
2022-08-07T10:25:06.466Z,20.67078
2022-08-07T10:26:09.003Z,20.55596
2022-08-07T10:27:10.446Z,20.2962
2022-08-07T10:28:12.601Z,20.02534
2022-08-07T10:29:13.356Z,20.05135
2022-08-07T10:30:15.398Z,20.14079
2022-08-07T10:31:17.113Z,20.0247
2022-08-07T10:32:36.822Z,20.18646
2022-08-07T10:34:14.319Z,20.58261
2022-08-07T10:35:20.248Z,20.43131
2022-08-07T10:36:29.467Z,20.35424
2022-08-07T10:38:00.505Z,20.59529
2022-08-07T10:39:22.163Z,21.08754
2022-08-07T10:40:30.328Z,21.23122
2022-08-07T10:41:51.350Z,21.24423
2022-08-07T10:42:55.622Z,21.22773
2022-08-07T10:44:02.306Z,21.21029
2022-08-07T10:45:08.139Z,20.94672
2022-08-07T10:46:08.753Z,20.94037
2022-08-07T10:47:11.984Z,21.04092
2022-08-07T10:48:14.933Z,21.07073
2022-08-07T10:49:15.765Z,21.17698
2022-08-07T10:50:26.318Z,21.07993
2022-08-07T10:51:39.681Z,20.902
2022-08-07T10:53:08.016Z,21.18872
2022-08-07T10:54:09.639Z,21.32352
2022-08-07T10:55:26.603Z,21.41677
2022-08-07T10:56:39.049Z,21.63657
2022-08-07T10:57:42.664Z,21.55791
2022-08-07T10:58:46.117Z,21.53824
2022-08-07T10:59:47.572Z,21.49416
2022-08-07T11:00:50.516Z,21.08374
2022-08-07T11:02:05.475Z,21.2826
2022-08-07T11:03:13.351Z,21.4894
2022-08-07T11:04:31.550Z,21.73458
2022-08-07T11:05:44.830Z,21.77422
2022-08-07T11:06:50.061Z,21.69747
2022-08-07T11:07:59.236Z,21.97404
2022-08-07T11:09:02.121Z,22.17894
2022-08-07T11:10:07.174Z,22.25125
2022-08-07T11:11:11.349Z,22.35497
2022-08-07T11:12:12.413Z,22.40794
2022-08-07T11:13:16.807Z,22.24777
2022-08-07T11:15:43.574Z,22.12216
2022-08-07T11:16:59.427Z,22.1358
2022-08-07T11:18:03.747Z,22.23476
2022-08-07T11:19:05.186Z,22.32706
2022-08-07T11:20:07.639Z,22.02384
2022-08-07T11:21:11.190Z,21.6556
2022-08-07T11:22:26.716Z,21.6223
2022-08-07T11:23:38.841Z,21.89665
2022-08-07T11:24:39.569Z,21.68732
2022-08-07T11:25:49.924Z,21.79896
2022-08-07T11:26:50.866Z,22.09774
2022-08-07T11:28:01.349Z,22.08061
2022-08-07T11:29:05.703Z,22.17545
2022-08-07T11:30:18.490Z,22.06349
2022-08-07T11:31:19.927Z,21.94264
2022-08-07T11:32:25.743Z,22.11614
2022-08-07T11:33:53.628Z,22.34419
2022-08-07T11:34:59.266Z,22.32167
2022-08-07T11:36:01.476Z,22.27282
2022-08-07T11:37:02.708Z,22.27219
2022-08-07T11:38:12.727Z,22.31057
2022-08-07T11:39:19.405Z,22.08283
2022-08-07T11:40:21.047Z,22.07268
2022-08-07T11:41:31.111Z,22.17957
2022-08-07T11:43:02.950Z,22.47994
2022-08-07T11:44:12.601Z,22.51356
2022-08-07T11:45:13.520Z,22.48882
2022-08-07T11:46:14.155Z,22.63821
2022-08-07T11:47:17.757Z,22.67183
2022-08-07T11:48:29.373Z,22.41872
2022-08-07T11:50:25.156Z,22.10123
2022-08-07T11:51:41.309Z,21.92996
2022-08-07T11:52:45.865Z,21.87572
2022-08-07T11:54:01.539Z,22.22112
2022-08-07T11:55:02.728Z,22.29249
2022-08-07T11:56:27.044Z,22.57446
2022-08-07T11:58:00.718Z,22.76603
2022-08-07T11:59:02.346Z,22.40255
2022-08-07T12:00:10.984Z,22.44188
2022-08-07T12:01:22.780Z,22.30835
2022-08-07T12:02:30.806Z,22.42538
2022-08-07T12:03:41.668Z,22.52117
2022-08-07T12:04:46.477Z,22.6436
2022-08-07T12:05:49.373Z,22.47677
2022-08-07T12:07:00.368Z,22.07142
2022-08-07T12:08:04.683Z,22.05841
2022-08-07T12:09:05.720Z,21.97563
2022-08-07T12:10:08.263Z,21.98388
2022-08-07T12:11:21.421Z,22.0435
2022-08-07T12:12:23.012Z,21.75202
2022-08-07T12:13:35.552Z,21.78723
2022-08-07T12:14:38.314Z,21.67241
2022-08-07T12:16:06.008Z,21.51573
2022-08-07T12:17:07.815Z,21.55188
2022-08-07T12:18:11.289Z,21.44246
2022-08-07T12:19:12.191Z,21.4377
2022-08-07T12:20:18.700Z,21.53602
2022-08-07T12:21:55.987Z,21.60612
2022-08-07T12:24:06.066Z,21.65655
2022-08-07T12:25:08.546Z,21.79865
2022-08-07T12:26:28.945Z,21.92678
2022-08-07T12:28:05.791Z,21.96897
2022-08-07T12:29:11.284Z,22.10186
2022-08-07T12:30:12.045Z,22.16752
2022-08-07T12:31:17.231Z,21.94581
2022-08-07T12:32:23.054Z,22.00386
2022-08-07T12:33:30.833Z,22.10916
2022-08-07T12:34:56.614Z,22.43109
2022-08-07T12:35:58.416Z,22.60998
2022-08-07T12:37:08.506Z,22.47201
2022-08-07T12:38:29.472Z,22.43553
2022-08-07T12:39:50.498Z,22.18592
2022-08-07T12:40:52.163Z,22.15325
2022-08-07T12:41:53.331Z,22.30898
2022-08-07T12:42:55.209Z,22.19797
2022-08-07T12:44:03.904Z,22.30295
2022-08-07T12:45:06.662Z,22.26109
2022-08-07T12:46:09.346Z,22.47011
2022-08-07T12:47:10.028Z,22.62584
2022-08-07T12:48:13.355Z,22.66549
2022-08-07T12:49:44.210Z,22.83772
2022-08-07T12:50:51.587Z,22.71211
2022-08-07T12:52:13.995Z,22.64265
2022-08-07T12:53:18.220Z,22.34704
2022-08-07T12:54:37.951Z,22.34958
2022-08-07T12:55:41.122Z,22.531
2022-08-07T12:57:09.389Z,22.73463
2022-08-07T12:58:10.831Z,22.82535
2022-08-07T12:59:20.628Z,23.00709
2022-08-07T13:00:32.981Z,23.12254
2022-08-07T13:01:36.833Z,23.22626
2022-08-07T13:02:37.986Z,23.2399
2022-08-07T13:04:02.553Z,23.34742
2022-08-07T13:05:15.103Z,23.44765
2022-08-07T13:07:03.067Z,23.32934
2022-08-07T13:08:12.931Z,23.36201
2022-08-07T13:10:18.702Z,23.48127
2022-08-07T13:11:30.631Z,22.91447
2022-08-07T13:13:03.449Z,22.84565
2022-08-07T13:14:04.084Z,22.64297
2022-08-07T13:15:04.730Z,22.78538
2022-08-07T13:16:07.273Z,22.74669
2022-08-07T13:17:08.412Z,22.86119
2022-08-07T13:18:10.529Z,23.0017
2022-08-07T13:19:45.652Z,23.19549
2022-08-07T13:20:52.102Z,23.32332
2022-08-07T13:22:00.641Z,23.30809
2022-08-07T13:24:02.080Z,23.39944
2022-08-07T13:25:06.052Z,23.55486
2022-08-07T13:26:07.448Z,23.49808
2022-08-07T13:27:20.826Z,23.58436
2022-08-07T13:28:24.142Z,23.55201
2022-08-07T13:29:25.762Z,23.64621
2022-08-07T13:30:39.886Z,23.84794
2022-08-07T13:31:46.213Z,24.13118
2022-08-07T13:32:57.959Z,24.04395
2022-08-07T13:34:33.355Z,23.85396
2022-08-07T13:36:00.733Z,23.78957
2022-08-07T13:37:02.307Z,23.74961
2022-08-07T13:38:11.365Z,23.63289
2022-08-07T13:39:28.180Z,23.61132
2022-08-07T13:40:50.338Z,23.48064
2022-08-07T13:41:55.139Z,23.65192
2022-08-07T13:42:55.829Z,23.6941
2022-08-07T13:43:56.535Z,23.60751
2022-08-07T13:46:07.345Z,23.53868
2022-08-07T13:48:05.998Z,23.37438
2022-08-07T13:50:31.653Z,23.59546
2022-08-07T13:52:23.165Z,23.90693
2022-08-07T13:53:59.881Z,23.60149
2022-08-07T13:55:02.072Z,23.51394
2022-08-07T13:56:07.056Z,23.66936
2022-08-07T13:57:14.504Z,23.93104
2022-08-07T13:58:27.972Z,23.81305
2022-08-07T13:59:32.354Z,23.70235
2022-08-07T14:00:33.002Z,23.92216
2022-08-07T14:01:33.617Z,24.10866
2022-08-07T14:03:04.873Z,24.21238
2022-08-07T14:04:08.053Z,23.86824
2022-08-07T14:05:09.108Z,23.58721
2022-08-07T14:06:09.750Z,23.63955
2022-08-07T14:07:10.425Z,23.50443
2022-08-07T14:08:11.036Z,23.56374
2022-08-07T14:09:16.953Z,23.50538
2022-08-07T14:10:43.737Z,23.61417
2022-08-07T14:12:00.414Z,23.58499
2022-08-07T14:13:05.574Z,23.73058